Luperon, Dominican Republic
Current Conditions -  °F | °C
As of 11:00 AM on Wednesday 22 Oct 2014 (Local Time) from MDPP Reporting Station
Few Clouds Few Clouds  
Wind Chill: 90°   Ceiling: Unl
Heat Index: 98°   Visibility: 6mi
Dew Point: 73°   Wind: 13mph
Humidity: 59%   Direction: 110°ESE
Pressure: 29.94"   Gusts: NA
Location:  19.89°N, 70.96°W
Report Text: MDPP 221500Z 11011KT 9999 FEW020 32/23 Q1014
Loading
Personal Weather Stations






























Interactive Weather Map
Tropical Storm Tracking
New forecast layout! Learn more

10-Day Weather Forecast

Advertisements
Track Severe Weather on mobile